sensor_id;sensor_type;location;lat;lon;timestamp;P1;durP1;ratioP1;P2;durP2;ratioP2
7215;SDS011;3649;48.798;9.798;2023-03-14T00:01:29;1.43;;;1.30;;
7215;SDS011;3649;48.798;9.798;2023-03-14T00:03:56;1.60;;;1.50;;
7215;SDS011;3649;48.798;9.798;2023-03-14T00:06:22;2.67;;;1.17;;
7215;SDS011;3649;48.798;9.798;2023-03-14T00:08:49;0.90;;;0.90;;
7215;SDS011;3649;48.798;9.798;2023-03-14T00:11:18;1.23;;;1.10;;
7215;SDS011;3649;48.798;9.798;2023-03-14T00:13:47;1.63;;;1.00;;
7215;SDS011;3649;48.798;9.798;2023-03-14T00:16:15;1.10;;;1.10;;
7215;SDS011;3649;48.798;9.798;2023-03-14T00:18:42;1.03;;;1.03;;
7215;SDS011;3649;48.798;9.798;2023-03-14T00:21:09;1.37;;;1.00;;
7215;SDS011;3649;48.798;9.798;2023-03-14T00:23:38;1.10;;;0.97;;
7215;SDS011;3649;48.798;9.798;2023-03-14T00:26:10;0.90;;;0.90;;
7215;SDS011;3649;48.798;9.798;2023-03-14T00:28:38;1.50;;;1.00;;
7215;SDS011;3649;48.798;9.798;2023-03-14T00:31:07;1.00;;;1.00;;
7215;SDS011;3649;48.798;9.798;2023-03-14T00:33:35;0.90;;;0.90;;
7215;SDS011;3649;48.798;9.798;2023-03-14T00:36:03;0.80;;;0.80;;
7215;SDS011;3649;48.798;9.798;2023-03-14T00:38:32;0.80;;;0.80;;
7215;SDS011;3649;48.798;9.798;2023-03-14T00:40:59;0.90;;;0.90;;
7215;SDS011;3649;48.798;9.798;2023-03-14T00:43:30;0.90;;;0.90;;
7215;SDS011;3649;48.798;9.798;2023-03-14T00:45:57;0.70;;;0.70;;
7215;SDS011;3649;48.798;9.798;2023-03-14T00:48:23;1.30;;;1.20;;
7215;SDS011;3649;48.798;9.798;2023-03-14T00:50:50;1.30;;;0.80;;
7215;SDS011;3649;48.798;9.798;2023-03-14T00:53:17;0.90;;;0.90;;
7215;SDS011;3649;48.798;9.798;2023-03-14T00:55:44;1.10;;;1.10;;
7215;SDS011;3649;48.798;9.798;2023-03-14T00:58:12;0.80;;;0.80;;
7215;SDS011;3649;48.798;9.798;2023-03-14T01:00:40;0.80;;;0.80;;
7215;SDS011;3649;48.798;9.798;2023-03-14T01:03:08;1.37;;;1.30;;
7215;SDS011;3649;48.798;9.798;2023-03-14T01:05:36;0.80;;;0.80;;
7215;SDS011;3649;48.798;9.798;2023-03-14T01:08:04;0.97;;;0.90;;
7215;SDS011;3649;48.798;9.798;2023-03-14T01:10:31;1.17;;;0.90;;
7215;SDS011;3649;48.798;9.798;2023-03-14T01:12:58;0.80;;;0.80;;
7215;SDS011;3649;48.798;9.798;2023-03-14T01:15:24;0.80;;;0.80;;
7215;SDS011;3649;48.798;9.798;2023-03-14T01:17:51;0.90;;;0.90;;
7215;SDS011;3649;48.798;9.798;2023-03-14T01:20:18;0.80;;;0.80;;
7215;SDS011;3649;48.798;9.798;2023-03-14T01:22:45;1.33;;;0.80;;
7215;SDS011;3649;48.798;9.798;2023-03-14T01:25:13;0.70;;;0.70;;
7215;SDS011;3649;48.798;9.798;2023-03-14T01:27:41;0.90;;;0.90;;
7215;SDS011;3649;48.798;9.798;2023-03-14T01:30:09;0.80;;;0.80;;
7215;SDS011;3649;48.798;9.798;2023-03-14T01:32:37;0.80;;;0.80;;
7215;SDS011;3649;48.798;9.798;2023-03-14T01:35:05;1.00;;;1.00;;
7215;SDS011;3649;48.798;9.798;2023-03-14T01:37:32;1.07;;;1.00;;
7215;SDS011;3649;48.798;9.798;2023-03-14T01:39:59;0.80;;;0.80;;
7215;SDS011;3649;48.798;9.798;2023-03-14T01:42:25;0.83;;;0.83;;
7215;SDS011;3649;48.798;9.798;2023-03-14T01:45:00;0.90;;;0.90;;
7215;SDS011;3649;48.798;9.798;2023-03-14T01:47:27;0.73;;;0.73;;
7215;SDS011;3649;48.798;9.798;2023-03-14T01:50:04;1.03;;;0.70;;
7215;SDS011;3649;48.798;9.798;2023-03-14T01:52:39;0.90;;;0.90;;
7215;SDS011;3649;48.798;9.798;2023-03-14T01:55:15;0.80;;;0.80;;
7215;SDS011;3649;48.798;9.798;2023-03-14T01:57:49;0.90;;;0.90;;
7215;SDS011;3649;48.798;9.798;2023-03-14T02:00:21;0.80;;;0.80;;
7215;SDS011;3649;48.798;9.798;2023-03-14T02:02:50;0.80;;;0.80;;
7215;SDS011;3649;48.798;9.798;2023-03-14T02:05:21;1.60;;;0.80;;
7215;SDS011;3649;48.798;9.798;2023-03-14T02:07:52;0.90;;;0.90;;
7215;SDS011;3649;48.798;9.798;2023-03-14T02:10:22;0.80;;;0.80;;
7215;SDS011;3649;48.798;9.798;2023-03-14T02:12:52;1.33;;;0.90;;
7215;SDS011;3649;48.798;9.798;2023-03-14T02:15:22;0.80;;;0.80;;
7215;SDS011;3649;48.798;9.798;2023-03-14T02:17:49;0.80;;;0.80;;
7215;SDS011;3649;48.798;9.798;2023-03-14T02:20:23;1.33;;;0.80;;
7215;SDS011;3649;48.798;9.798;2023-03-14T02:23:07;0.77;;;0.77;;
7215;SDS011;3649;48.798;9.798;2023-03-14T02:28:12;0.70;;;0.70;;
7215;SDS011;3649;48.798;9.798;2023-03-14T02:30:39;0.80;;;0.80;;
7215;SDS011;3649;48.798;9.798;2023-03-14T02:33:10;1.33;;;0.93;;
7215;SDS011;3649;48.798;9.798;2023-03-14T02:35:41;0.90;;;0.90;;
7215;SDS011;3649;48.798;9.798;2023-03-14T02:38:24;1.00;;;1.00;;
7215;SDS011;3649;48.798;9.798;2023-03-14T02:41:03;0.93;;;0.93;;
7215;SDS011;3649;48.798;9.798;2023-03-14T02:43:30;2.00;;;0.80;;
7215;SDS011;3649;48.798;9.798;2023-03-14T02:45:56;1.87;;;0.97;;
7215;SDS011;3649;48.798;9.798;2023-03-14T02:48:38;0.80;;;0.80;;
7215;SDS011;3649;48.798;9.798;2023-03-14T02:51:08;3.40;;;1.00;;
7215;SDS011;3649;48.798;9.798;2023-03-14T02:53:36;1.00;;;1.00;;
7215;SDS011;3649;48.798;9.798;2023-03-14T02:56:04;0.80;;;0.80;;
7215;SDS011;3649;48.798;9.798;2023-03-14T02:58:31;1.00;;;1.00;;
7215;SDS011;3649;48.798;9.798;2023-03-14T03:00:58;1.07;;;1.00;;
7215;SDS011;3649;48.798;9.798;2023-03-14T03:03:25;0.70;;;0.70;;
7215;SDS011;3649;48.798;9.798;2023-03-14T03:05:53;0.80;;;0.80;;
7215;SDS011;3649;48.798;9.798;2023-03-14T03:08:22;0.80;;;0.80;;
7215;SDS011;3649;48.798;9.798;2023-03-14T03:10:50;0.80;;;0.80;;
7215;SDS011;3649;48.798;9.798;2023-03-14T03:13:17;1.10;;;1.10;;
7215;SDS011;3649;48.798;9.798;2023-03-14T03:15:44;0.90;;;0.90;;
7215;SDS011;3649;48.798;9.798;2023-03-14T03:18:12;1.00;;;1.00;;
7215;SDS011;3649;48.798;9.798;2023-03-14T03:20:38;1.30;;;1.20;;
7215;SDS011;3649;48.798;9.798;2023-03-14T03:23:05;0.90;;;0.90;;
7215;SDS011;3649;48.798;9.798;2023-03-14T03:25:32;1.90;;;1.07;;
7215;SDS011;3649;48.798;9.798;2023-03-14T03:27:59;1.60;;;1.17;;
7215;SDS011;3649;48.798;9.798;2023-03-14T03:30:27;0.90;;;0.90;;
7215;SDS011;3649;48.798;9.798;2023-03-14T03:32:54;3.87;;;1.10;;
7215;SDS011;3649;48.798;9.798;2023-03-14T03:35:21;1.10;;;1.00;;
7215;SDS011;3649;48.798;9.798;2023-03-14T03:37:48;1.27;;;0.93;;
7215;SDS011;3649;48.798;9.798;2023-03-14T03:40:14;0.90;;;0.90;;
7215;SDS011;3649;48.798;9.798;2023-03-14T03:42:41;1.10;;;1.00;;
7215;SDS011;3649;48.798;9.798;2023-03-14T03:45:08;1.63;;;0.90;;
7215;SDS011;3649;48.798;9.798;2023-03-14T03:47:35;0.90;;;0.90;;
7215;SDS011;3649;48.798;9.798;2023-03-14T03:50:02;0.90;;;0.90;;
7215;SDS011;3649;48.798;9.798;2023-03-14T03:52:29;1.17;;;1.10;;
7215;SDS011;3649;48.798;9.798;2023-03-14T03:54:56;1.00;;;1.00;;
7215;SDS011;3649;48.798;9.798;2023-03-14T03:57:23;3.03;;;1.20;;
7215;SDS011;3649;48.798;9.798;2023-03-14T03:59:50;1.30;;;1.03;;
7215;SDS011;3649;48.798;9.798;2023-03-14T04:02:17;1.10;;;1.10;;
7215;SDS011;3649;48.798;9.798;2023-03-14T04:04:45;1.53;;;1.00;;
7215;SDS011;3649;48.798;9.798;2023-03-14T04:07:12;0.90;;;0.90;;
7215;SDS011;3649;48.798;9.798;2023-03-14T04:09:40;1.03;;;1.03;;
7215;SDS011;3649;48.798;9.798;2023-03-14T04:12:06;1.10;;;1.10;;
7215;SDS011;3649;48.798;9.798;2023-03-14T04:14:33;1.30;;;1.10;;
7215;SDS011;3649;48.798;9.798;2023-03-14T04:17:00;0.90;;;0.90;;
7215;SDS011;3649;48.798;9.798;2023-03-14T04:19:27;1.40;;;1.40;;
7215;SDS011;3649;48.798;9.798;2023-03-14T04:21:54;1.30;;;1.20;;
7215;SDS011;3649;48.798;9.798;2023-03-14T04:24:20;1.20;;;1.20;;
7215;SDS011;3649;48.798;9.798;2023-03-14T04:26:47;1.30;;;1.30;;
7215;SDS011;3649;48.798;9.798;2023-03-14T04:29:14;1.40;;;1.30;;
7215;SDS011;3649;48.798;9.798;2023-03-14T04:31:41;5.43;;;1.50;;
7215;SDS011;3649;48.798;9.798;2023-03-14T04:34:07;1.20;;;1.20;;
7215;SDS011;3649;48.798;9.798;2023-03-14T04:36:34;3.60;;;1.40;;
7215;SDS011;3649;48.798;9.798;2023-03-14T04:39:04;1.50;;;1.23;;
7215;SDS011;3649;48.798;9.798;2023-03-14T04:41:31;1.10;;;1.10;;
7215;SDS011;3649;48.798;9.798;2023-03-14T04:43:58;1.30;;;1.20;;
7215;SDS011;3649;48.798;9.798;2023-03-14T04:46:25;2.03;;;1.33;;
7215;SDS011;3649;48.798;9.798;2023-03-14T04:48:52;6.73;;;1.40;;
7215;SDS011;3649;48.798;9.798;2023-03-14T04:51:19;4.27;;;1.20;;
7215;SDS011;3649;48.798;9.798;2023-03-14T04:53:48;1.53;;;1.43;;
7215;SDS011;3649;48.798;9.798;2023-03-14T04:56:15;1.43;;;1.33;;
7215;SDS011;3649;48.798;9.798;2023-03-14T04:58:42;4.47;;;1.83;;
7215;SDS011;3649;48.798;9.798;2023-03-14T05:01:10;1.80;;;1.20;;
7215;SDS011;3649;48.798;9.798;2023-03-14T05:03:37;1.10;;;1.10;;
7215;SDS011;3649;48.798;9.798;2023-03-14T05:06:04;2.40;;;1.10;;
7215;SDS011;3649;48.798;9.798;2023-03-14T05:08:31;1.70;;;1.43;;
7215;SDS011;3649;48.798;9.798;2023-03-14T05:10:58;1.57;;;1.20;;
7215;SDS011;3649;48.798;9.798;2023-03-14T05:13:25;1.73;;;1.20;;
7215;SDS011;3649;48.798;9.798;2023-03-14T05:15:52;1.17;;;1.13;;
7215;SDS011;3649;48.798;9.798;2023-03-14T05:18:19;1.67;;;1.20;;
7215;SDS011;3649;48.798;9.798;2023-03-14T05:20:46;1.30;;;1.20;;
7215;SDS011;3649;48.798;9.798;2023-03-14T05:23:17;1.20;;;1.10;;
7215;SDS011;3649;48.798;9.798;2023-03-14T05:25:43;1.40;;;1.23;;
7215;SDS011;3649;48.798;9.798;2023-03-14T05:28:10;1.77;;;1.00;;
7215;SDS011;3649;48.798;9.798;2023-03-14T05:30:37;1.73;;;1.10;;
7215;SDS011;3649;48.798;9.798;2023-03-14T05:33:04;1.80;;;1.20;;
7215;SDS011;3649;48.798;9.798;2023-03-14T05:35:31;2.83;;;1.40;;
7215;SDS011;3649;48.798;9.798;2023-03-14T05:37:58;3.50;;;1.30;;
7215;SDS011;3649;48.798;9.798;2023-03-14T05:40:24;3.03;;;1.63;;
7215;SDS011;3649;48.798;9.798;2023-03-14T05:42:51;3.93;;;1.67;;
7215;SDS011;3649;48.798;9.798;2023-03-14T05:45:18;2.57;;;2.37;;
7215;SDS011;3649;48.798;9.798;2023-03-14T05:47:45;2.30;;;1.57;;
7215;SDS011;3649;48.798;9.798;2023-03-14T05:50:12;2.27;;;2.07;;
7215;SDS011;3649;48.798;9.798;2023-03-14T05:52:39;3.73;;;1.40;;
7215;SDS011;3649;48.798;9.798;2023-03-14T05:55:06;2.40;;;1.30;;
7215;SDS011;3649;48.798;9.798;2023-03-14T05:57:33;1.73;;;1.33;;
7215;SDS011;3649;48.798;9.798;2023-03-14T06:00:00;2.20;;;1.90;;
7215;SDS011;3649;48.798;9.798;2023-03-14T06:02:27;1.40;;;1.30;;
7215;SDS011;3649;48.798;9.798;2023-03-14T06:04:54;2.60;;;1.13;;
7215;SDS011;3649;48.798;9.798;2023-03-14T06:07:20;2.30;;;1.20;;
7215;SDS011;3649;48.798;9.798;2023-03-14T06:09:47;4.57;;;1.40;;
7215;SDS011;3649;48.798;9.798;2023-03-14T06:12:14;2.33;;;1.40;;
7215;SDS011;3649;48.798;9.798;2023-03-14T06:14:41;2.93;;;1.50;;
7215;SDS011;3649;48.798;9.798;2023-03-14T06:17:07;3.53;;;1.53;;
7215;SDS011;3649;48.798;9.798;2023-03-14T06:19:34;2.03;;;1.73;;
7215;SDS011;3649;48.798;9.798;2023-03-14T06:22:01;2.83;;;1.40;;
7215;SDS011;3649;48.798;9.798;2023-03-14T06:24:28;1.63;;;1.20;;
7215;SDS011;3649;48.798;9.798;2023-03-14T06:26:55;2.20;;;1.43;;
7215;SDS011;3649;48.798;9.798;2023-03-14T06:29:21;5.90;;;2.00;;
7215;SDS011;3649;48.798;9.798;2023-03-14T06:31:48;3.00;;;1.70;;
7215;SDS011;3649;48.798;9.798;2023-03-14T06:34:15;2.50;;;1.40;;
7215;SDS011;3649;48.798;9.798;2023-03-14T06:36:42;1.40;;;1.30;;
7215;SDS011;3649;48.798;9.798;2023-03-14T06:39:09;3.50;;;1.20;;
7215;SDS011;3649;48.798;9.798;2023-03-14T06:41:35;3.93;;;1.77;;
7215;SDS011;3649;48.798;9.798;2023-03-14T06:44:02;2.43;;;1.60;;
7215;SDS011;3649;48.798;9.798;2023-03-14T06:46:29;2.40;;;1.40;;
7215;SDS011;3649;48.798;9.798;2023-03-14T06:48:56;2.10;;;1.30;;
7215;SDS011;3649;48.798;9.798;2023-03-14T06:51:23;1.60;;;1.50;;
7215;SDS011;3649;48.798;9.798;2023-03-14T06:53:50;1.93;;;1.40;;
7215;SDS011;3649;48.798;9.798;2023-03-14T06:56:17;1.70;;;1.33;;
7215;SDS011;3649;48.798;9.798;2023-03-14T06:58:44;2.53;;;1.60;;
7215;SDS011;3649;48.798;9.798;2023-03-14T07:01:17;5.00;;;1.83;;
7215;SDS011;3649;48.798;9.798;2023-03-14T07:03:51;3.63;;;1.57;;
7215;SDS011;3649;48.798;9.798;2023-03-14T07:06:18;2.53;;;1.60;;
7215;SDS011;3649;48.798;9.798;2023-03-14T07:08:45;2.33;;;1.30;;
7215;SDS011;3649;48.798;9.798;2023-03-14T07:11:12;4.87;;;1.70;;
7215;SDS011;3649;48.798;9.798;2023-03-14T07:13:39;1.50;;;1.40;;
7215;SDS011;3649;48.798;9.798;2023-03-14T07:16:06;4.97;;;1.47;;
7215;SDS011;3649;48.798;9.798;2023-03-14T07:18:34;1.43;;;1.30;;
7215;SDS011;3649;48.798;9.798;2023-03-14T07:21:01;4.77;;;1.90;;
7215;SDS011;3649;48.798;9.798;2023-03-14T07:23:28;4.00;;;1.70;;
7215;SDS011;3649;48.798;9.798;2023-03-14T07:25:56;3.73;;;1.67;;
7215;SDS011;3649;48.798;9.798;2023-03-14T07:28:23;5.20;;;2.00;;
7215;SDS011;3649;48.798;9.798;2023-03-14T07:30:49;4.20;;;1.93;;
7215;SDS011;3649;48.798;9.798;2023-03-14T07:33:16;7.23;;;2.60;;
7215;SDS011;3649;48.798;9.798;2023-03-14T07:35:43;2.37;;;1.47;;
7215;SDS011;3649;48.798;9.798;2023-03-14T07:38:12;3.43;;;2.00;;
7215;SDS011;3649;48.798;9.798;2023-03-14T07:40:40;3.93;;;1.90;;
7215;SDS011;3649;48.798;9.798;2023-03-14T07:43:06;2.87;;;2.23;;
7215;SDS011;3649;48.798;9.798;2023-03-14T07:45:33;3.03;;;2.13;;
7215;SDS011;3649;48.798;9.798;2023-03-14T07:48:08;4.10;;;2.40;;
7215;SDS011;3649;48.798;9.798;2023-03-14T07:50:34;2.87;;;1.80;;
7215;SDS011;3649;48.798;9.798;2023-03-14T07:53:02;2.97;;;1.93;;
7215;SDS011;3649;48.798;9.798;2023-03-14T07:55:30;3.70;;;1.67;;
7215;SDS011;3649;48.798;9.798;2023-03-14T07:57:57;1.60;;;1.50;;
7215;SDS011;3649;48.798;9.798;2023-03-14T08:00:24;2.37;;;1.50;;
7215;SDS011;3649;48.798;9.798;2023-03-14T08:02:51;4.03;;;1.30;;
7215;SDS011;3649;48.798;9.798;2023-03-14T08:05:18;1.50;;;1.00;;
7215;SDS011;3649;48.798;9.798;2023-03-14T08:07:45;2.50;;;1.50;;
7215;SDS011;3649;48.798;9.798;2023-03-14T08:10:12;1.13;;;1.13;;
7215;SDS011;3649;48.798;9.798;2023-03-14T08:12:48;2.43;;;1.30;;
7215;SDS011;3649;48.798;9.798;2023-03-14T08:15:16;2.70;;;1.30;;
7215;SDS011;3649;48.798;9.798;2023-03-14T08:17:43;2.47;;;1.20;;
7215;SDS011;3649;48.798;9.798;2023-03-14T08:20:10;1.00;;;1.00;;
7215;SDS011;3649;48.798;9.798;2023-03-14T08:22:39;2.17;;;1.60;;
7215;SDS011;3649;48.798;9.798;2023-03-14T08:25:07;4.13;;;1.33;;
7215;SDS011;3649;48.798;9.798;2023-03-14T08:27:34;1.33;;;1.27;;
7215;SDS011;3649;48.798;9.798;2023-03-14T08:30:04;2.67;;;1.17;;
7215;SDS011;3649;48.798;9.798;2023-03-14T08:32:32;1.40;;;1.17;;
7215;SDS011;3649;48.798;9.798;2023-03-14T08:34:59;1.67;;;1.10;;
7215;SDS011;3649;48.798;9.798;2023-03-14T08:37:25;3.50;;;1.63;;
7215;SDS011;3649;48.798;9.798;2023-03-14T08:39:53;2.23;;;1.00;;
7215;SDS011;3649;48.798;9.798;2023-03-14T08:42:20;3.97;;;1.10;;
7215;SDS011;3649;48.798;9.798;2023-03-14T08:44:47;1.50;;;1.20;;
7215;SDS011;3649;48.798;9.798;2023-03-14T08:47:14;2.00;;;1.07;;
7215;SDS011;3649;48.798;9.798;2023-03-14T08:49:41;3.60;;;1.10;;
7215;SDS011;3649;48.798;9.798;2023-03-14T08:52:09;2.60;;;1.00;;
7215;SDS011;3649;48.798;9.798;2023-03-14T08:54:35;1.23;;;1.10;;
7215;SDS011;3649;48.798;9.798;2023-03-14T08:57:02;1.17;;;1.17;;
7215;SDS011;3649;48.798;9.798;2023-03-14T08:59:30;1.57;;;1.07;;
7215;SDS011;3649;48.798;9.798;2023-03-14T09:01:56;1.50;;;1.40;;
7215;SDS011;3649;48.798;9.798;2023-03-14T09:04:23;2.27;;;1.13;;
7215;SDS011;3649;48.798;9.798;2023-03-14T09:06:51;1.10;;;1.10;;
7215;SDS011;3649;48.798;9.798;2023-03-14T09:09:19;2.30;;;1.10;;
7215;SDS011;3649;48.798;9.798;2023-03-14T09:11:46;1.30;;;1.20;;
7215;SDS011;3649;48.798;9.798;2023-03-14T09:14:13;1.20;;;1.10;;
7215;SDS011;3649;48.798;9.798;2023-03-14T09:16:40;1.33;;;1.10;;
7215;SDS011;3649;48.798;9.798;2023-03-14T09:19:07;3.00;;;1.77;;
7215;SDS011;3649;48.798;9.798;2023-03-14T09:21:35;1.17;;;0.90;;
7215;SDS011;3649;48.798;9.798;2023-03-14T09:24:04;1.10;;;1.00;;
7215;SDS011;3649;48.798;9.798;2023-03-14T09:26:32;1.30;;;1.20;;
7215;SDS011;3649;48.798;9.798;2023-03-14T09:28:59;2.00;;;1.50;;
7215;SDS011;3649;48.798;9.798;2023-03-14T09:31:27;1.30;;;1.20;;
7215;SDS011;3649;48.798;9.798;2023-03-14T09:33:56;1.10;;;1.10;;
7215;SDS011;3649;48.798;9.798;2023-03-14T09:36:23;1.10;;;1.00;;
7215;SDS011;3649;48.798;9.798;2023-03-14T09:38:51;1.00;;;1.00;;
7215;SDS011;3649;48.798;9.798;2023-03-14T09:41:23;1.67;;;0.90;;
7215;SDS011;3649;48.798;9.798;2023-03-14T09:43:58;2.73;;;1.13;;
7215;SDS011;3649;48.798;9.798;2023-03-14T09:46:31;0.83;;;0.83;;
7215;SDS011;3649;48.798;9.798;2023-03-14T09:49:02;0.80;;;0.80;;
7215;SDS011;3649;48.798;9.798;2023-03-14T09:51:34;1.03;;;1.03;;
7215;SDS011;3649;48.798;9.798;2023-03-14T09:54:02;0.90;;;0.90;;
7215;SDS011;3649;48.798;9.798;2023-03-14T09:56:31;1.03;;;0.93;;
7215;SDS011;3649;48.798;9.798;2023-03-14T09:59:05;1.40;;;0.90;;
7215;SDS011;3649;48.798;9.798;2023-03-14T10:01:40;0.77;;;0.77;;
7215;SDS011;3649;48.798;9.798;2023-03-14T10:04:10;1.07;;;0.93;;
7215;SDS011;3649;48.798;9.798;2023-03-14T10:06:41;2.13;;;1.10;;
7215;SDS011;3649;48.798;9.798;2023-03-14T10:09:11;3.30;;;0.90;;
7215;SDS011;3649;48.798;9.798;2023-03-14T10:11:56;3.00;;;1.10;;
7215;SDS011;3649;48.798;9.798;2023-03-14T10:14:35;1.00;;;0.87;;
7215;SDS011;3649;48.798;9.798;2023-03-14T10:17:11;1.53;;;1.10;;
7215;SDS011;3649;48.798;9.798;2023-03-14T10:20:00;1.10;;;1.10;;
7215;SDS011;3649;48.798;9.798;2023-03-14T10:22:30;1.00;;;1.00;;
7215;SDS011;3649;48.798;9.798;2023-03-14T10:25:02;2.97;;;0.90;;
7215;SDS011;3649;48.798;9.798;2023-03-14T10:27:34;1.13;;;0.70;;
7215;SDS011;3649;48.798;9.798;2023-03-14T10:30:04;0.70;;;0.70;;
7215;SDS011;3649;48.798;9.798;2023-03-14T10:32:35;7.73;;;1.27;;
7215;SDS011;3649;48.798;9.798;2023-03-14T10:37:35;3.43;;;0.80;;
7215;SDS011;3649;48.798;9.798;2023-03-14T10:40:02;0.80;;;0.80;;
7215;SDS011;3649;48.798;9.798;2023-03-14T10:42:33;1.67;;;0.80;;
7215;SDS011;3649;48.798;9.798;2023-03-14T10:45:06;0.87;;;0.70;;
7215;SDS011;3649;48.798;9.798;2023-03-14T10:47:51;0.80;;;0.80;;
7215;SDS011;3649;48.798;9.798;2023-03-14T10:52:59;0.80;;;0.80;;
7215;SDS011;3649;48.798;9.798;2023-03-14T10:55:39;0.70;;;0.70;;
7215;SDS011;3649;48.798;9.798;2023-03-14T10:58:21;0.83;;;0.80;;
7215;SDS011;3649;48.798;9.798;2023-03-14T11:00:54;0.70;;;0.70;;
7215;SDS011;3649;48.798;9.798;2023-03-14T11:03:50;0.87;;;0.83;;
7215;SDS011;3649;48.798;9.798;2023-03-14T11:06:28;0.93;;;0.90;;
7215;SDS011;3649;48.798;9.798;2023-03-14T11:09:25;2.37;;;1.37;;
7215;SDS011;3649;48.798;9.798;2023-03-14T11:14:58;4.63;;;1.63;;
7215;SDS011;3649;48.798;9.798;2023-03-14T11:17:37;0.90;;;0.90;;
7215;SDS011;3649;48.798;9.798;2023-03-14T11:20:27;0.90;;;0.90;;
7215;SDS011;3649;48.798;9.798;2023-03-14T11:26:24;0.80;;;0.80;;
7215;SDS011;3649;48.798;9.798;2023-03-14T11:35:03;0.93;;;0.93;;
7215;SDS011;3649;48.798;9.798;2023-03-14T11:37:46;0.70;;;0.70;;
7215;SDS011;3649;48.798;9.798;2023-03-14T11:40:35;0.80;;;0.80;;
7215;SDS011;3649;48.798;9.798;2023-03-14T11:45:35;1.00;;;1.00;;
7215;SDS011;3649;48.798;9.798;2023-03-14T11:50:43;1.03;;;0.70;;
7215;SDS011;3649;48.798;9.798;2023-03-14T11:53:14;0.90;;;0.90;;
7215;SDS011;3649;48.798;9.798;2023-03-14T11:56:02;0.90;;;0.90;;
7215;SDS011;3649;48.798;9.798;2023-03-14T11:58:31;0.70;;;0.70;;
7215;SDS011;3649;48.798;9.798;2023-03-14T12:01:07;0.80;;;0.80;;
7215;SDS011;3649;48.798;9.798;2023-03-14T12:06:28;1.00;;;1.00;;
7215;SDS011;3649;48.798;9.798;2023-03-14T12:09:04;1.83;;;0.80;;
7215;SDS011;3649;48.798;9.798;2023-03-14T12:11:33;0.90;;;0.90;;
7215;SDS011;3649;48.798;9.798;2023-03-14T12:14:21;2.13;;;1.07;;
7215;SDS011;3649;48.798;9.798;2023-03-14T12:17:19;1.27;;;1.17;;
7215;SDS011;3649;48.798;9.798;2023-03-14T12:19:46;2.87;;;1.97;;
7215;SDS011;3649;48.798;9.798;2023-03-14T12:22:26;1.17;;;1.17;;
7215;SDS011;3649;48.798;9.798;2023-03-14T12:25:00;5.10;;;1.20;;
7215;SDS011;3649;48.798;9.798;2023-03-14T12:27:42;0.90;;;0.90;;
7215;SDS011;3649;48.798;9.798;2023-03-14T12:35:36;1.53;;;1.00;;
7215;SDS011;3649;48.798;9.798;2023-03-14T12:43:29;1.45;;;1.00;;
7215;SDS011;3649;48.798;9.798;2023-03-14T12:48:39;0.80;;;0.80;;
7215;SDS011;3649;48.798;9.798;2023-03-14T12:51:13;0.93;;;0.93;;
7215;SDS011;3649;48.798;9.798;2023-03-14T12:56:22;1.13;;;0.80;;
7215;SDS011;3649;48.798;9.798;2023-03-14T12:59:18;0.80;;;0.80;;
7215;SDS011;3649;48.798;9.798;2023-03-14T13:02:13;0.90;;;0.90;;
7215;SDS011;3649;48.798;9.798;2023-03-14T13:05:13;1.00;;;0.77;;
7215;SDS011;3649;48.798;9.798;2023-03-14T13:24:05;1.10;;;1.10;;
7215;SDS011;3649;48.798;9.798;2023-03-14T13:26:44;1.43;;;1.30;;
7215;SDS011;3649;48.798;9.798;2023-03-14T13:31:53;1.30;;;1.20;;
7215;SDS011;3649;48.798;9.798;2023-03-14T13:34:31;1.30;;;1.30;;
7215;SDS011;3649;48.798;9.798;2023-03-14T13:36:59;1.40;;;1.40;;
7215;SDS011;3649;48.798;9.798;2023-03-14T13:39:27;1.10;;;1.10;;
7215;SDS011;3649;48.798;9.798;2023-03-14T13:41:59;1.33;;;1.23;;
7215;SDS011;3649;48.798;9.798;2023-03-14T13:44:30;1.23;;;1.20;;
7215;SDS011;3649;48.798;9.798;2023-03-14T13:46:58;1.20;;;1.20;;
7215;SDS011;3649;48.798;9.798;2023-03-14T13:49:28;2.50;;;1.20;;
7215;SDS011;3649;48.798;9.798;2023-03-14T13:51:58;1.43;;;1.33;;
7215;SDS011;3649;48.798;9.798;2023-03-14T13:54:25;1.23;;;1.20;;
7215;SDS011;3649;48.798;9.798;2023-03-14T13:57:00;1.47;;;1.37;;
7215;SDS011;3649;48.798;9.798;2023-03-14T13:59:32;9.43;;;2.33;;
7215;SDS011;3649;48.798;9.798;2023-03-14T14:02:01;1.63;;;1.30;;
7215;SDS011;3649;48.798;9.798;2023-03-14T14:04:33;1.70;;;1.27;;
7215;SDS011;3649;48.798;9.798;2023-03-14T14:07:07;2.17;;;1.20;;
7215;SDS011;3649;48.798;9.798;2023-03-14T14:09:38;1.27;;;1.17;;
7215;SDS011;3649;48.798;9.798;2023-03-14T14:15:19;1.20;;;1.20;;
7215;SDS011;3649;48.798;9.798;2023-03-14T14:17:50;1.37;;;1.30;;
7215;SDS011;3649;48.798;9.798;2023-03-14T14:20:24;2.53;;;1.33;;
7215;SDS011;3649;48.798;9.798;2023-03-14T14:23:02;1.80;;;1.70;;
7215;SDS011;3649;48.798;9.798;2023-03-14T14:25:38;4.23;;;1.40;;
7215;SDS011;3649;48.798;9.798;2023-03-14T14:28:16;3.77;;;1.27;;
7215;SDS011;3649;48.798;9.798;2023-03-14T14:33:41;2.13;;;1.50;;
7215;SDS011;3649;48.798;9.798;2023-03-14T14:36:29;1.53;;;1.43;;
7215;SDS011;3649;48.798;9.798;2023-03-14T14:39:05;1.57;;;1.37;;
7215;SDS011;3649;48.798;9.798;2023-03-14T14:41:41;1.77;;;1.60;;
7215;SDS011;3649;48.798;9.798;2023-03-14T14:44:12;2.30;;;1.43;;
7215;SDS011;3649;48.798;9.798;2023-03-14T14:46:42;1.77;;;1.67;;
7215;SDS011;3649;48.798;9.798;2023-03-14T14:49:10;1.20;;;1.20;;
7215;SDS011;3649;48.798;9.798;2023-03-14T14:51:44;1.60;;;1.50;;
7215;SDS011;3649;48.798;9.798;2023-03-14T14:54:16;4.33;;;1.17;;
7215;SDS011;3649;48.798;9.798;2023-03-14T14:56:46;2.30;;;1.60;;
7215;SDS011;3649;48.798;9.798;2023-03-14T14:59:25;3.00;;;1.60;;
7215;SDS011;3649;48.798;9.798;2023-03-14T15:01:59;2.57;;;1.33;;
7215;SDS011;3649;48.798;9.798;2023-03-14T15:04:31;1.50;;;1.27;;
7215;SDS011;3649;48.798;9.798;2023-03-14T15:06:58;1.20;;;1.20;;
7215;SDS011;3649;48.798;9.798;2023-03-14T15:09:25;2.60;;;1.40;;
7215;SDS011;3649;48.798;9.798;2023-03-14T15:11:52;3.87;;;1.87;;
7215;SDS011;3649;48.798;9.798;2023-03-14T15:14:19;1.43;;;1.33;;
7215;SDS011;3649;48.798;9.798;2023-03-14T15:16:46;1.83;;;1.40;;
7215;SDS011;3649;48.798;9.798;2023-03-14T15:19:23;4.53;;;1.50;;
7215;SDS011;3649;48.798;9.798;2023-03-14T15:21:52;1.87;;;1.40;;
7215;SDS011;3649;48.798;9.798;2023-03-14T15:24:19;5.53;;;1.70;;
7215;SDS011;3649;48.798;9.798;2023-03-14T15:26:47;1.60;;;1.50;;
7215;SDS011;3649;48.798;9.798;2023-03-14T15:29:13;1.87;;;1.60;;
7215;SDS011;3649;48.798;9.798;2023-03-14T15:31:40;1.63;;;1.53;;
7215;SDS011;3649;48.798;9.798;2023-03-14T15:34:09;3.33;;;1.60;;
7215;SDS011;3649;48.798;9.798;2023-03-14T15:36:36;1.80;;;1.60;;
7215;SDS011;3649;48.798;9.798;2023-03-14T15:39:05;4.27;;;1.40;;
7215;SDS011;3649;48.798;9.798;2023-03-14T15:41:32;2.07;;;1.50;;
7215;SDS011;3649;48.798;9.798;2023-03-14T15:44:00;1.77;;;1.40;;
7215;SDS011;3649;48.798;9.798;2023-03-14T15:46:27;4.13;;;1.90;;
7215;SDS011;3649;48.798;9.798;2023-03-14T15:48:56;2.20;;;1.70;;
7215;SDS011;3649;48.798;9.798;2023-03-14T15:51:23;2.43;;;1.60;;
7215;SDS011;3649;48.798;9.798;2023-03-14T15:53:49;2.73;;;1.67;;
7215;SDS011;3649;48.798;9.798;2023-03-14T15:56:18;2.70;;;1.70;;
7215;SDS011;3649;48.798;9.798;2023-03-14T15:58:46;4.77;;;1.87;;
7215;SDS011;3649;48.798;9.798;2023-03-14T16:01:14;3.50;;;2.17;;
7215;SDS011;3649;48.798;9.798;2023-03-14T16:03:44;1.40;;;1.40;;
7215;SDS011;3649;48.798;9.798;2023-03-14T16:06:12;3.27;;;1.70;;
7215;SDS011;3649;48.798;9.798;2023-03-14T16:08:40;1.73;;;1.43;;
7215;SDS011;3649;48.798;9.798;2023-03-14T16:11:08;1.40;;;1.30;;
7215;SDS011;3649;48.798;9.798;2023-03-14T16:13:37;3.47;;;1.60;;
7215;SDS011;3649;48.798;9.798;2023-03-14T16:16:04;4.13;;;1.50;;
7215;SDS011;3649;48.798;9.798;2023-03-14T16:18:33;4.00;;;1.73;;
7215;SDS011;3649;48.798;9.798;2023-03-14T16:21:03;1.87;;;1.63;;
7215;SDS011;3649;48.798;9.798;2023-03-14T16:23:36;3.97;;;1.83;;
7215;SDS011;3649;48.798;9.798;2023-03-14T16:26:07;2.83;;;1.77;;
7215;SDS011;3649;48.798;9.798;2023-03-14T16:28:36;4.20;;;1.70;;
7215;SDS011;3649;48.798;9.798;2023-03-14T16:31:04;1.80;;;1.60;;
7215;SDS011;3649;48.798;9.798;2023-03-14T16:33:36;6.00;;;1.50;;
7215;SDS011;3649;48.798;9.798;2023-03-14T16:36:05;3.13;;;1.50;;
7215;SDS011;3649;48.798;9.798;2023-03-14T16:38:38;8.57;;;1.77;;
7215;SDS011;3649;48.798;9.798;2023-03-14T16:43:41;3.83;;;1.93;;